sensor_id;sensor_type;location;lat;lon;timestamp;pressure;altitude;pressure_sealevel;temperature;humidity
25420;BME280;13354;48.174;11.566;2024-02-15T00:02:01;96205.50;;;10.49;66.95
25420;BME280;13354;48.174;11.566;2024-02-15T00:04:27;96210.97;;;10.48;66.90
25420;BME280;13354;48.174;11.566;2024-02-15T00:06:52;96209.50;;;10.45;66.72
25420;BME280;13354;48.174;11.566;2024-02-15T00:09:17;96212.00;;;10.47;66.89
25420;BME280;13354;48.174;11.566;2024-02-15T00:11:43;96210.44;;;10.52;66.75
25420;BME280;13354;48.174;11.566;2024-02-15T00:14:08;96197.13;;;10.46;66.99
25420;BME280;13354;48.174;11.566;2024-02-15T00:16:34;96196.81;;;10.40;66.95
25420;BME280;13354;48.174;11.566;2024-02-15T00:19:00;96198.44;;;10.42;66.73
25420;BME280;13354;48.174;11.566;2024-02-15T00:21:27;96193.28;;;10.48;66.56
25420;BME280;13354;48.174;11.566;2024-02-15T00:23:52;96191.97;;;10.44;66.45
25420;BME280;13354;48.174;11.566;2024-02-15T00:26:21;96182.56;;;10.42;66.50
25420;BME280;13354;48.174;11.566;2024-02-15T00:28:46;96202.28;;;10.39;66.50
25420;BME280;13354;48.174;11.566;2024-02-15T00:31:12;96198.97;;;10.37;66.54
25420;BME280;13354;48.174;11.566;2024-02-15T00:33:37;96200.63;;;10.38;66.41
25420;BME280;13354;48.174;11.566;2024-02-15T00:36:04;96197.63;;;10.41;66.29
25420;BME280;13354;48.174;11.566;2024-02-15T00:38:31;96190.41;;;10.35;66.40
25420;BME280;13354;48.174;11.566;2024-02-15T00:40:56;96194.69;;;10.36;66.08
25420;BME280;13354;48.174;11.566;2024-02-15T00:43:22;96197.03;;;10.31;66.24
25420;BME280;13354;48.174;11.566;2024-02-15T00:45:47;96197.97;;;10.38;66.02
25420;BME280;13354;48.174;11.566;2024-02-15T00:48:13;96189.56;;;10.34;66.02
25420;BME280;13354;48.174;11.566;2024-02-15T00:50:38;96195.31;;;10.38;65.93
25420;BME280;13354;48.174;11.566;2024-02-15T00:53:04;96201.50;;;10.30;66.34
25420;BME280;13354;48.174;11.566;2024-02-15T00:55:30;96197.50;;;10.34;66.35
25420;BME280;13354;48.174;11.566;2024-02-15T00:57:55;96191.69;;;10.39;66.23
25420;BME280;13354;48.174;11.566;2024-02-15T01:00:21;96192.53;;;10.39;66.04
25420;BME280;13354;48.174;11.566;2024-02-15T01:02:46;96196.34;;;10.37;66.22
25420;BME280;13354;48.174;11.566;2024-02-15T01:05:12;96201.34;;;10.32;66.27
25420;BME280;13354;48.174;11.566;2024-02-15T01:07:40;96199.66;;;10.39;66.05
25420;BME280;13354;48.174;11.566;2024-02-15T01:10:06;96200.31;;;10.56;65.99
25420;BME280;13354;48.174;11.566;2024-02-15T01:12:32;96195.75;;;10.50;65.55
25420;BME280;13354;48.174;11.566;2024-02-15T01:14:58;96198.09;;;10.45;66.00
25420;BME280;13354;48.174;11.566;2024-02-15T01:17:24;96201.50;;;10.53;65.92
25420;BME280;13354;48.174;11.566;2024-02-15T01:19:49;96198.78;;;10.61;65.93
25420;BME280;13354;48.174;11.566;2024-02-15T01:22:14;96201.25;;;10.63;65.64
25420;BME280;13354;48.174;11.566;2024-02-15T01:24:40;96196.31;;;10.60;65.32
25420;BME280;13354;48.174;11.566;2024-02-15T01:27:05;96185.88;;;10.44;65.95
25420;BME280;13354;48.174;11.566;2024-02-15T01:29:32;96194.03;;;10.57;65.70
25420;BME280;13354;48.174;11.566;2024-02-15T01:31:57;96192.69;;;10.61;65.56
25420;BME280;13354;48.174;11.566;2024-02-15T01:34:22;96187.00;;;10.64;65.30
25420;BME280;13354;48.174;11.566;2024-02-15T01:36:48;96188.09;;;10.55;65.53
25420;BME280;13354;48.174;11.566;2024-02-15T01:39:15;96191.56;;;10.55;65.51
25420;BME280;13354;48.174;11.566;2024-02-15T01:41:40;96181.03;;;10.47;65.49
25420;BME280;13354;48.174;11.566;2024-02-15T01:44:06;96180.56;;;10.44;66.00
25420;BME280;13354;48.174;11.566;2024-02-15T01:46:32;96178.59;;;10.46;65.73
25420;BME280;13354;48.174;11.566;2024-02-15T01:48:58;96176.34;;;10.34;66.32
25420;BME280;13354;48.174;11.566;2024-02-15T01:51:24;96176.34;;;10.34;66.18
25420;BME280;13354;48.174;11.566;2024-02-15T01:53:52;96180.66;;;10.35;66.19
25420;BME280;13354;48.174;11.566;2024-02-15T01:56:18;96178.06;;;10.27;66.28
25420;BME280;13354;48.174;11.566;2024-02-15T01:58:45;96171.44;;;10.23;66.89
25420;BME280;13354;48.174;11.566;2024-02-15T02:01:11;96181.75;;;10.18;67.30
25420;BME280;13354;48.174;11.566;2024-02-15T02:03:38;96182.09;;;10.15;67.66
25420;BME280;13354;48.174;11.566;2024-02-15T02:06:04;96178.75;;;10.21;67.37
25420;BME280;13354;48.174;11.566;2024-02-15T02:08:30;96178.28;;;10.18;67.98
25420;BME280;13354;48.174;11.566;2024-02-15T02:10:56;96171.59;;;10.30;67.55
25420;BME280;13354;48.174;11.566;2024-02-15T02:13:30;96162.47;;;10.32;66.85
25420;BME280;13354;48.174;11.566;2024-02-15T02:15:56;96169.25;;;10.35;66.56
25420;BME280;13354;48.174;11.566;2024-02-15T02:18:22;96175.00;;;10.38;66.34
25420;BME280;13354;48.174;11.566;2024-02-15T02:20:47;96169.06;;;10.36;66.20
25420;BME280;13354;48.174;11.566;2024-02-15T02:23:17;96165.03;;;10.40;66.19
25420;BME280;13354;48.174;11.566;2024-02-15T02:25:45;96170.34;;;10.40;66.02
25420;BME280;13354;48.174;11.566;2024-02-15T02:28:13;96168.84;;;10.38;65.91
25420;BME280;13354;48.174;11.566;2024-02-15T02:30:39;96166.94;;;10.32;66.26
25420;BME280;13354;48.174;11.566;2024-02-15T02:33:10;96163.75;;;10.36;66.18
25420;BME280;13354;48.174;11.566;2024-02-15T02:35:36;96154.81;;;10.37;65.98
25420;BME280;13354;48.174;11.566;2024-02-15T02:38:02;96162.06;;;10.58;65.52
25420;BME280;13354;48.174;11.566;2024-02-15T02:40:27;96166.06;;;10.39;66.08
25420;BME280;13354;48.174;11.566;2024-02-15T02:42:54;96165.75;;;10.34;66.31
25420;BME280;13354;48.174;11.566;2024-02-15T02:45:25;96168.22;;;10.36;66.46
25420;BME280;13354;48.174;11.566;2024-02-15T02:47:51;96171.88;;;10.35;66.32
25420;BME280;13354;48.174;11.566;2024-02-15T02:50:17;96166.06;;;10.39;66.00
25420;BME280;13354;48.174;11.566;2024-02-15T02:52:43;96156.63;;;10.37;66.06
25420;BME280;13354;48.174;11.566;2024-02-15T02:55:09;96156.47;;;10.38;65.82
25420;BME280;13354;48.174;11.566;2024-02-15T02:57:38;96155.63;;;10.38;65.88
25420;BME280;13354;48.174;11.566;2024-02-15T03:00:05;96154.31;;;10.57;65.29
25420;BME280;13354;48.174;11.566;2024-02-15T03:02:36;96159.31;;;10.52;65.51
25420;BME280;13354;48.174;11.566;2024-02-15T03:05:05;96154.81;;;10.37;66.37
25420;BME280;13354;48.174;11.566;2024-02-15T03:07:35;96159.59;;;10.42;66.24
25420;BME280;13354;48.174;11.566;2024-02-15T03:10:04;96166.28;;;10.30;66.92
25420;BME280;13354;48.174;11.566;2024-02-15T03:12:33;96154.00;;;10.37;66.75
25420;BME280;13354;48.174;11.566;2024-02-15T03:15:00;96160.41;;;10.43;65.96
25420;BME280;13354;48.174;11.566;2024-02-15T03:17:27;96157.75;;;10.43;66.14
25420;BME280;13354;48.174;11.566;2024-02-15T03:19:52;96158.28;;;10.38;65.92
25420;BME280;13354;48.174;11.566;2024-02-15T03:22:17;96163.25;;;10.56;65.93
25420;BME280;13354;48.174;11.566;2024-02-15T03:24:43;96162.75;;;10.37;66.30
25420;BME280;13354;48.174;11.566;2024-02-15T03:27:08;96167.88;;;10.39;67.06
25420;BME280;13354;48.174;11.566;2024-02-15T03:29:37;96164.13;;;10.33;66.84
25420;BME280;13354;48.174;11.566;2024-02-15T03:32:03;96166.13;;;10.31;67.14
25420;BME280;13354;48.174;11.566;2024-02-15T03:34:30;96159.75;;;10.18;68.09
25420;BME280;13354;48.174;11.566;2024-02-15T03:36:56;96166.22;;;10.15;67.37
25420;BME280;13354;48.174;11.566;2024-02-15T03:39:22;96166.56;;;10.12;68.44
25420;BME280;13354;48.174;11.566;2024-02-15T03:41:49;96165.13;;;10.09;67.80
25420;BME280;13354;48.174;11.566;2024-02-15T03:44:15;96167.22;;;10.14;67.87
25420;BME280;13354;48.174;11.566;2024-02-15T03:46:44;96166.94;;;10.09;67.81
25420;BME280;13354;48.174;11.566;2024-02-15T03:49:16;96163.09;;;10.11;67.79
25420;BME280;13354;48.174;11.566;2024-02-15T03:51:42;96165.28;;;10.08;67.99
25420;BME280;13354;48.174;11.566;2024-02-15T03:54:08;96165.63;;;10.05;68.19
25420;BME280;13354;48.174;11.566;2024-02-15T03:56:34;96168.16;;;9.98;68.83
25420;BME280;13354;48.174;11.566;2024-02-15T03:58:59;96171.31;;;9.93;68.91
25420;BME280;13354;48.174;11.566;2024-02-15T04:01:29;96170.50;;;9.93;68.59
25420;BME280;13354;48.174;11.566;2024-02-15T04:03:59;96165.94;;;9.87;68.83
25420;BME280;13354;48.174;11.566;2024-02-15T04:06:25;96171.72;;;9.82;69.47
25420;BME280;13354;48.174;11.566;2024-02-15T04:08:52;96167.63;;;9.80;69.55
25420;BME280;13354;48.174;11.566;2024-02-15T04:11:17;96165.88;;;9.72;69.55
25420;BME280;13354;48.174;11.566;2024-02-15T04:13:44;96168.19;;;9.67;69.95
25420;BME280;13354;48.174;11.566;2024-02-15T04:16:10;96174.00;;;9.62;70.23
25420;BME280;13354;48.174;11.566;2024-02-15T04:18:35;96176.66;;;9.62;70.15
25420;BME280;13354;48.174;11.566;2024-02-15T04:21:00;96175.50;;;9.57;69.98
25420;BME280;13354;48.174;11.566;2024-02-15T04:23:26;96172.53;;;9.60;69.75
25420;BME280;13354;48.174;11.566;2024-02-15T04:25:52;96169.06;;;9.59;69.87
25420;BME280;13354;48.174;11.566;2024-02-15T04:28:17;96174.88;;;9.55;70.12
25420;BME280;13354;48.174;11.566;2024-02-15T04:30:43;96175.47;;;9.65;69.33
25420;BME280;13354;48.174;11.566;2024-02-15T04:33:08;96173.94;;;9.71;68.80
25420;BME280;13354;48.174;11.566;2024-02-15T04:35:34;96167.50;;;9.73;67.95
25420;BME280;13354;48.174;11.566;2024-02-15T04:38:00;96170.09;;;9.81;67.23
25420;BME280;13354;48.174;11.566;2024-02-15T04:40:25;96175.09;;;9.76;67.20
25420;BME280;13354;48.174;11.566;2024-02-15T04:42:51;96176.78;;;9.69;67.11
25420;BME280;13354;48.174;11.566;2024-02-15T04:45:17;96172.91;;;9.80;67.14
25420;BME280;13354;48.174;11.566;2024-02-15T04:47:44;96181.06;;;9.70;67.29
25420;BME280;13354;48.174;11.566;2024-02-15T04:50:10;96184.97;;;9.51;67.43
25420;BME280;13354;48.174;11.566;2024-02-15T04:52:36;96177.50;;;9.55;67.38
25420;BME280;13354;48.174;11.566;2024-02-15T04:55:02;96174.25;;;9.44;67.80
25420;BME280;13354;48.174;11.566;2024-02-15T04:57:30;96175.97;;;9.29;68.54
25420;BME280;13354;48.174;11.566;2024-02-15T04:59:55;96174.53;;;9.18;68.94
25420;BME280;13354;48.174;11.566;2024-02-15T05:02:21;96179.63;;;9.28;68.16
25420;BME280;13354;48.174;11.566;2024-02-15T05:04:49;96175.50;;;9.26;68.36
25420;BME280;13354;48.174;11.566;2024-02-15T05:07:20;96178.13;;;9.26;68.06
25420;BME280;13354;48.174;11.566;2024-02-15T05:09:50;96178.19;;;9.17;67.98
25420;BME280;13354;48.174;11.566;2024-02-15T05:12:25;96176.72;;;9.07;68.17
25420;BME280;13354;48.174;11.566;2024-02-15T05:14:50;96174.38;;;9.12;68.04
25420;BME280;13354;48.174;11.566;2024-02-15T05:17:16;96162.22;;;9.03;68.44
25420;BME280;13354;48.174;11.566;2024-02-15T05:19:42;96157.88;;;9.18;68.23
25420;BME280;13354;48.174;11.566;2024-02-15T05:22:07;96161.66;;;9.15;68.14
25420;BME280;13354;48.174;11.566;2024-02-15T05:24:33;96159.47;;;9.27;67.64
25420;BME280;13354;48.174;11.566;2024-02-15T05:26:58;96157.69;;;9.19;67.52
25420;BME280;13354;48.174;11.566;2024-02-15T05:29:24;96161.94;;;9.29;67.46
25420;BME280;13354;48.174;11.566;2024-02-15T05:31:49;96166.94;;;9.15;67.66
25420;BME280;13354;48.174;11.566;2024-02-15T05:34:16;96169.44;;;9.09;68.14
25420;BME280;13354;48.174;11.566;2024-02-15T05:36:42;96162.38;;;9.01;69.00
25420;BME280;13354;48.174;11.566;2024-02-15T05:39:07;96165.03;;;8.93;68.90
25420;BME280;13354;48.174;11.566;2024-02-15T05:41:33;96169.66;;;8.91;69.11
25420;BME280;13354;48.174;11.566;2024-02-15T05:43:59;96172.31;;;8.83;69.93
25420;BME280;13354;48.174;11.566;2024-02-15T05:46:25;96177.75;;;8.89;69.02
25420;BME280;13354;48.174;11.566;2024-02-15T05:48:50;96172.78;;;9.03;68.59
25420;BME280;13354;48.174;11.566;2024-02-15T05:51:19;96161.41;;;8.94;68.51
25420;BME280;13354;48.174;11.566;2024-02-15T05:53:45;96164.38;;;8.91;69.03
25420;BME280;13354;48.174;11.566;2024-02-15T05:56:10;96171.34;;;8.84;69.56
25420;BME280;13354;48.174;11.566;2024-02-15T05:58:36;96173.66;;;8.79;69.81
25420;BME280;13354;48.174;11.566;2024-02-15T06:01:03;96167.09;;;8.66;70.17
25420;BME280;13354;48.174;11.566;2024-02-15T06:03:32;96169.88;;;8.73;70.11
25420;BME280;13354;48.174;11.566;2024-02-15T06:05:59;96166.56;;;8.71;69.90
25420;BME280;13354;48.174;11.566;2024-02-15T06:08:27;96166.25;;;8.74;69.72
25420;BME280;13354;48.174;11.566;2024-02-15T06:10:54;96169.53;;;8.76;69.85
25420;BME280;13354;48.174;11.566;2024-02-15T06:13:21;96166.09;;;8.67;70.10
25420;BME280;13354;48.174;11.566;2024-02-15T06:15:47;96167.41;;;8.71;70.22
25420;BME280;13354;48.174;11.566;2024-02-15T06:18:29;96168.09;;;8.65;70.58
25420;BME280;13354;48.174;11.566;2024-02-15T06:20:57;96178.31;;;8.60;70.91
25420;BME280;13354;48.174;11.566;2024-02-15T06:23:23;96184.25;;;8.70;70.12
25420;BME280;13354;48.174;11.566;2024-02-15T06:25:51;96172.84;;;8.70;70.02
25420;BME280;13354;48.174;11.566;2024-02-15T06:28:18;96173.16;;;8.75;69.72
25420;BME280;13354;48.174;11.566;2024-02-15T06:31:02;96185.88;;;8.71;70.41
25420;BME280;13354;48.174;11.566;2024-02-15T06:33:46;96186.84;;;8.79;69.78
25420;BME280;13354;48.174;11.566;2024-02-15T06:36:30;96179.06;;;8.93;69.30
25420;BME280;13354;48.174;11.566;2024-02-15T06:39:14;96188.28;;;9.06;69.21
25420;BME280;13354;48.174;11.566;2024-02-15T06:41:58;96185.78;;;9.12;68.13
25420;BME280;13354;48.174;11.566;2024-02-15T06:44:23;96189.56;;;9.18;67.85
25420;BME280;13354;48.174;11.566;2024-02-15T06:46:49;96184.78;;;9.13;67.57
25420;BME280;13354;48.174;11.566;2024-02-15T06:49:15;96192.22;;;9.10;68.06
25420;BME280;13354;48.174;11.566;2024-02-15T06:51:41;96195.66;;;9.18;67.37
25420;BME280;13354;48.174;11.566;2024-02-15T06:54:07;96197.66;;;9.08;67.32
25420;BME280;13354;48.174;11.566;2024-02-15T06:56:36;96188.41;;;9.21;67.45
25420;BME280;13354;48.174;11.566;2024-02-15T06:59:02;96198.63;;;9.15;67.35
25420;BME280;13354;48.174;11.566;2024-02-15T07:01:27;96196.97;;;9.23;66.90
25420;BME280;13354;48.174;11.566;2024-02-15T07:03:53;96195.84;;;9.17;66.83
25420;BME280;13354;48.174;11.566;2024-02-15T07:06:18;96193.63;;;9.37;66.49
25420;BME280;13354;48.174;11.566;2024-02-15T07:08:44;96198.75;;;9.30;66.59
25420;BME280;13354;48.174;11.566;2024-02-15T07:11:09;96194.56;;;9.44;66.07
25420;BME280;13354;48.174;11.566;2024-02-15T07:13:37;96196.94;;;9.39;66.26
25420;BME280;13354;48.174;11.566;2024-02-15T07:16:07;96192.22;;;9.49;65.82
25420;BME280;13354;48.174;11.566;2024-02-15T07:18:32;96186.22;;;9.63;65.42
25420;BME280;13354;48.174;11.566;2024-02-15T07:20:58;96193.19;;;9.56;65.19
25420;BME280;13354;48.174;11.566;2024-02-15T07:23:25;96188.84;;;9.63;65.49
25420;BME280;13354;48.174;11.566;2024-02-15T07:25:50;96184.22;;;9.65;65.55
25420;BME280;13354;48.174;11.566;2024-02-15T07:28:19;96179.09;;;9.72;65.23
25420;BME280;13354;48.174;11.566;2024-02-15T07:30:45;96178.41;;;9.70;65.27
25420;BME280;13354;48.174;11.566;2024-02-15T07:33:12;96183.72;;;9.70;64.89
25420;BME280;13354;48.174;11.566;2024-02-15T07:35:38;96174.72;;;9.79;64.79
25420;BME280;13354;48.174;11.566;2024-02-15T07:38:04;96174.38;;;9.82;64.28
25420;BME280;13354;48.174;11.566;2024-02-15T07:40:30;96177.06;;;9.74;64.58
25420;BME280;13354;48.174;11.566;2024-02-15T07:42:59;96177.88;;;9.75;64.50
25420;BME280;13354;48.174;11.566;2024-02-15T07:45:24;96178.03;;;9.81;64.43
25420;BME280;13354;48.174;11.566;2024-02-15T07:47:49;96177.28;;;9.96;64.28
25420;BME280;13354;48.174;11.566;2024-02-15T07:50:18;96174.56;;;10.04;64.28
25420;BME280;13354;48.174;11.566;2024-02-15T07:52:48;96177.13;;;9.89;64.08
25420;BME280;13354;48.174;11.566;2024-02-15T07:55:14;96171.31;;;9.93;63.97
25420;BME280;13354;48.174;11.566;2024-02-15T07:57:39;96169.50;;;9.94;64.05
25420;BME280;13354;48.174;11.566;2024-02-15T08:00:06;96159.75;;;9.95;63.78
25420;BME280;13354;48.174;11.566;2024-02-15T08:02:36;96159.34;;;10.06;63.06
25420;BME280;13354;48.174;11.566;2024-02-15T08:05:02;96166.09;;;10.08;62.98
25420;BME280;13354;48.174;11.566;2024-02-15T08:07:31;96163.91;;;10.12;62.76
25420;BME280;13354;48.174;11.566;2024-02-15T08:09:59;96161.56;;;10.17;62.32
25420;BME280;13354;48.174;11.566;2024-02-15T08:12:25;96155.34;;;10.33;61.78
25420;BME280;13354;48.174;11.566;2024-02-15T08:14:51;96159.16;;;10.30;61.39
25420;BME280;13354;48.174;11.566;2024-02-15T08:17:17;96160.88;;;10.46;61.08
25420;BME280;13354;48.174;11.566;2024-02-15T08:19:42;96153.19;;;10.51;63.64
25420;BME280;13354;48.174;11.566;2024-02-15T08:22:07;96154.03;;;10.52;61.84
25420;BME280;13354;48.174;11.566;2024-02-15T08:24:33;96150.81;;;10.56;61.72
25420;BME280;13354;48.174;11.566;2024-02-15T08:26:58;96143.19;;;10.61;63.02
25420;BME280;13354;48.174;11.566;2024-02-15T08:29:25;96146.00;;;10.75;60.50
25420;BME280;13354;48.174;11.566;2024-02-15T08:31:50;96136.44;;;10.88;59.74
25420;BME280;13354;48.174;11.566;2024-02-15T08:34:16;96143.09;;;10.99;59.50
25420;BME280;13354;48.174;11.566;2024-02-15T08:36:43;96145.03;;;11.05;59.46
25420;BME280;13354;48.174;11.566;2024-02-15T08:39:09;96134.97;;;11.16;59.24
25420;BME280;13354;48.174;11.566;2024-02-15T08:41:37;96133.78;;;11.18;59.22
25420;BME280;13354;48.174;11.566;2024-02-15T08:44:03;96134.97;;;11.16;58.93
25420;BME280;13354;48.174;11.566;2024-02-15T08:46:34;96133.88;;;11.25;58.90
25420;BME280;13354;48.174;11.566;2024-02-15T08:49:01;96130.09;;;11.34;58.71
25420;BME280;13354;48.174;11.566;2024-02-15T08:51:28;96131.56;;;11.36;59.22
25420;BME280;13354;48.174;11.566;2024-02-15T08:53:55;96129.63;;;11.45;60.34
25420;BME280;13354;48.174;11.566;2024-02-15T08:56:20;96128.59;;;11.61;58.90
25420;BME280;13354;48.174;11.566;2024-02-15T08:58:48;96126.09;;;11.96;58.16
25420;BME280;13354;48.174;11.566;2024-02-15T09:01:14;96128.13;;;12.65;56.81
25420;BME280;13354;48.174;11.566;2024-02-15T09:03:39;96117.97;;;13.51;53.72
25420;BME280;13354;48.174;11.566;2024-02-15T09:06:04;96123.25;;;14.12;53.00
25420;BME280;13354;48.174;11.566;2024-02-15T09:08:30;96120.19;;;14.48;52.00
25420;BME280;13354;48.174;11.566;2024-02-15T09:10:55;96120.50;;;15.25;49.19
25420;BME280;13354;48.174;11.566;2024-02-15T09:13:21;96111.84;;;15.88;47.65
25420;BME280;13354;48.174;11.566;2024-02-15T09:15:47;96118.75;;;16.27;47.49
25420;BME280;13354;48.174;11.566;2024-02-15T09:18:13;96120.44;;;16.53;47.23
25420;BME280;13354;48.174;11.566;2024-02-15T09:20:38;96120.59;;;16.83;46.14
25420;BME280;13354;48.174;11.566;2024-02-15T09:23:09;96109.25;;;17.06;45.63
25420;BME280;13354;48.174;11.566;2024-02-15T09:25:40;96108.94;;;17.14;46.08
25420;BME280;13354;48.174;11.566;2024-02-15T09:28:06;96103.00;;;17.49;45.40
25420;BME280;13354;48.174;11.566;2024-02-15T09:30:31;96102.16;;;17.49;45.02
25420;BME280;13354;48.174;11.566;2024-02-15T09:32:57;96098.19;;;17.70;44.95
25420;BME280;13354;48.174;11.566;2024-02-15T09:35:22;96099.25;;;17.87;44.95
25420;BME280;13354;48.174;11.566;2024-02-15T09:37:48;96095.53;;;18.00;44.45
25420;BME280;13354;48.174;11.566;2024-02-15T09:40:14;96094.31;;;18.14;44.92
25420;BME280;13354;48.174;11.566;2024-02-15T09:42:41;96088.53;;;17.87;45.06
25420;BME280;13354;48.174;11.566;2024-02-15T09:45:07;96086.34;;;18.38;44.93
25420;BME280;13354;48.174;11.566;2024-02-15T09:47:38;96080.53;;;18.52;43.80
25420;BME280;13354;48.174;11.566;2024-02-15T09:50:09;96076.44;;;18.50;43.80
25420;BME280;13354;48.174;11.566;2024-02-15T09:52:51;96079.16;;;18.97;43.33
25420;BME280;13354;48.174;11.566;2024-02-15T09:55:17;96073.06;;;19.13;42.82
25420;BME280;13354;48.174;11.566;2024-02-15T09:57:44;96072.63;;;18.93;42.80
25420;BME280;13354;48.174;11.566;2024-02-15T10:00:10;96067.84;;;18.71;42.98
25420;BME280;13354;48.174;11.566;2024-02-15T10:02:43;96064.50;;;18.22;44.76
25420;BME280;13354;48.174;11.566;2024-02-15T10:05:10;96066.78;;;18.07;45.47
25420;BME280;13354;48.174;11.566;2024-02-15T10:07:40;96065.28;;;17.51;46.97
25420;BME280;13354;48.174;11.566;2024-02-15T10:10:22;96058.16;;;17.45;45.96
25420;BME280;13354;48.174;11.566;2024-02-15T10:12:48;96067.88;;;17.57;46.37
25420;BME280;13354;48.174;11.566;2024-02-15T10:15:42;96059.63;;;17.59;46.83
25420;BME280;13354;48.174;11.566;2024-02-15T10:18:09;96058.00;;;17.88;46.59
25420;BME280;13354;48.174;11.566;2024-02-15T10:20:40;96064.72;;;18.09;45.99
25420;BME280;13354;48.174;11.566;2024-02-15T10:25:35;96059.22;;;18.04;45.93
25420;BME280;13354;48.174;11.566;2024-02-15T10:28:10;96057.22;;;17.69;46.53
25420;BME280;13354;48.174;11.566;2024-02-15T10:30:40;96054.94;;;17.54;47.59
25420;BME280;13354;48.174;11.566;2024-02-15T10:33:09;96040.44;;;17.92;47.22
25420;BME280;13354;48.174;11.566;2024-02-15T10:35:34;96039.63;;;17.92;46.25
25420;BME280;13354;48.174;11.566;2024-02-15T10:38:10;96035.03;;;18.34;45.85
25420;BME280;13354;48.174;11.566;2024-02-15T10:40:37;96031.19;;;18.65;44.94
25420;BME280;13354;48.174;11.566;2024-02-15T10:43:03;96031.19;;;19.00;44.29
25420;BME280;13354;48.174;11.566;2024-02-15T10:45:31;96025.47;;;19.49;43.13
25420;BME280;13354;48.174;11.566;2024-02-15T10:47:57;96020.88;;;20.40;42.19
25420;BME280;13354;48.174;11.566;2024-02-15T10:50:26;96010.84;;;20.69;41.18
25420;BME280;13354;48.174;11.566;2024-02-15T10:52:55;96012.53;;;20.75;40.95
25420;BME280;13354;48.174;11.566;2024-02-15T10:55:38;96017.59;;;20.72;40.98
25420;BME280;13354;48.174;11.566;2024-02-15T10:58:06;96006.88;;;21.16;40.02
25420;BME280;13354;48.174;11.566;2024-02-15T11:00:33;95998.34;;;21.24;40.38
25420;BME280;13354;48.174;11.566;2024-02-15T11:03:03;95994.09;;;21.50;39.53
25420;BME280;13354;48.174;11.566;2024-02-15T11:05:34;95993.41;;;22.14;39.14
25420;BME280;13354;48.174;11.566;2024-02-15T11:08:01;95986.22;;;22.25;38.54
25420;BME280;13354;48.174;11.566;2024-02-15T11:10:27;95984.91;;;22.32;38.35
25420;BME280;13354;48.174;11.566;2024-02-15T11:12:53;95977.03;;;22.68;37.54
25420;BME280;13354;48.174;11.566;2024-02-15T11:15:44;95972.44;;;22.63;37.25
25420;BME280;13354;48.174;11.566;2024-02-15T11:18:41;95974.88;;;22.65;37.41
25420;BME280;13354;48.174;11.566;2024-02-15T11:21:07;95968.97;;;22.31;37.23
25420;BME280;13354;48.174;11.566;2024-02-15T11:23:32;95966.44;;;22.51;37.28
25420;BME280;13354;48.174;11.566;2024-02-15T11:25:59;95963.44;;;22.48;36.94
25420;BME280;13354;48.174;11.566;2024-02-15T11:30:55;95956.00;;;22.70;36.80
25420;BME280;13354;48.174;11.566;2024-02-15T11:33:27;95947.75;;;22.45;36.99
25420;BME280;13354;48.174;11.566;2024-02-15T11:38:28;95942.16;;;22.14;37.19
25420;BME280;13354;48.174;11.566;2024-02-15T11:43:57;95933.28;;;22.18;37.52
25420;BME280;13354;48.174;11.566;2024-02-15T11:46:27;95930.69;;;21.97;38.49
25420;BME280;13354;48.174;11.566;2024-02-15T11:48:57;95922.44;;;22.13;38.60
25420;BME280;13354;48.174;11.566;2024-02-15T11:51:25;95928.16;;;21.85;37.71
25420;BME280;13354;48.174;11.566;2024-02-15T11:54:11;95915.53;;;21.58;39.03
25420;BME280;13354;48.174;11.566;2024-02-15T11:56:55;95912.44;;;21.44;38.14
25420;BME280;13354;48.174;11.566;2024-02-15T11:59:43;95912.03;;;21.58;38.95
25420;BME280;13354;48.174;11.566;2024-02-15T12:02:19;95910.50;;;21.72;37.51
25420;BME280;13354;48.174;11.566;2024-02-15T12:05:05;95901.41;;;21.46;37.93
25420;BME280;13354;48.174;11.566;2024-02-15T12:07:49;95900.34;;;21.47;37.80
25420;BME280;13354;48.174;11.566;2024-02-15T12:10:33;95895.97;;;21.41;38.09
25420;BME280;13354;48.174;11.566;2024-02-15T12:13:18;95894.22;;;21.30;38.33
25420;BME280;13354;48.174;11.566;2024-02-15T12:16:02;95896.16;;;21.07;38.54
25420;BME280;13354;48.174;11.566;2024-02-15T12:18:46;95892.66;;;20.85;38.67
25420;BME280;13354;48.174;11.566;2024-02-15T12:21:19;95890.22;;;20.61;38.62
25420;BME280;13354;48.174;11.566;2024-02-15T12:23:48;95890.06;;;20.12;39.86
25420;BME280;13354;48.174;11.566;2024-02-15T12:26:18;95885.59;;;20.18;39.64
25420;BME280;13354;48.174;11.566;2024-02-15T12:28:44;95881.84;;;20.02;40.06
25420;BME280;13354;48.174;11.566;2024-02-15T12:31:09;95875.28;;;19.93;40.33
25420;BME280;13354;48.174;11.566;2024-02-15T12:33:35;95877.34;;;19.57;41.37
25420;BME280;13354;48.174;11.566;2024-02-15T12:36:07;95873.50;;;19.36;41.23
25420;BME280;13354;48.174;11.566;2024-02-15T12:38:33;95870.00;;;19.36;41.04
25420;BME280;13354;48.174;11.566;2024-02-15T12:41:16;95862.88;;;19.41;41.16
25420;BME280;13354;48.174;11.566;2024-02-15T12:43:41;95866.69;;;19.45;41.18
25420;BME280;13354;48.174;11.566;2024-02-15T12:46:08;95864.72;;;19.24;41.03
25420;BME280;13354;48.174;11.566;2024-02-15T12:48:33;95859.81;;;19.21;40.15
25420;BME280;13354;48.174;11.566;2024-02-15T12:51:12;95864.97;;;19.22;40.79
25420;BME280;13354;48.174;11.566;2024-02-15T12:53:38;95858.13;;;19.31;40.53
25420;BME280;13354;48.174;11.566;2024-02-15T12:56:03;95852.53;;;19.50;40.88
25420;BME280;13354;48.174;11.566;2024-02-15T12:58:31;95848.50;;;19.64;39.00
25420;BME280;13354;48.174;11.566;2024-02-15T13:00:56;95845.41;;;19.72;39.21
25420;BME280;13354;48.174;11.566;2024-02-15T13:03:23;95843.84;;;19.76;38.66
25420;BME280;13354;48.174;11.566;2024-02-15T13:05:50;95846.50;;;19.43;38.93
25420;BME280;13354;48.174;11.566;2024-02-15T13:08:16;95841.94;;;19.43;38.89